Terminal Aerodrome Forecast
Issued by NWS Cleveland, OH

Home | Current Version | Previous Version | Text Only | Print | Product List | Glossary Off
Versions: 1 2 3 4 5 6 7 8 9 10 11 12 13 14 15 16 17

812
FTUS41 KCLE 212111 AAA
TAFERI
TAF AMD
KERI 212111Z 2121/2218 18010G18KT P6SM SCT025 BKN035
     FM220200 18012KT P6SM VCSH BKN025
     FM220400 20008KT 6SM -SHRA VCTS OVC025CB
      TEMPO 2204/2206 3SM -TSRA OVC015CB
     FM220800 24006KT P6SM BKN025=

USA.gov is the U.S. government's official web portal to all federal, state and local government web resources and services.